sensor_id;sensor_type;location;lat;lon;timestamp;pressure;altitude;pressure_sealevel;temperature;humidity
5455;BME280;2750;49.050;9.250;2023-05-01T00:04:32;98753.03;;;12.90;82.64
5455;BME280;2750;49.050;9.250;2023-05-01T00:09:34;98749.19;;;12.82;82.70
5455;BME280;2750;49.050;9.250;2023-05-01T00:14:36;98738.69;;;12.83;82.65
5455;BME280;2750;49.050;9.250;2023-05-01T00:19:38;98731.56;;;12.71;83.00
5455;BME280;2750;49.050;9.250;2023-05-01T00:24:40;98733.63;;;12.80;82.91
5455;BME280;2750;49.050;9.250;2023-05-01T00:29:42;98731.28;;;12.91;82.12
5455;BME280;2750;49.050;9.250;2023-05-01T00:34:44;98717.84;;;12.99;81.81
5455;BME280;2750;49.050;9.250;2023-05-01T00:39:47;98710.97;;;12.82;81.91
5455;BME280;2750;49.050;9.250;2023-05-01T00:44:50;98707.56;;;12.96;81.70
5455;BME280;2750;49.050;9.250;2023-05-01T00:49:51;98713.16;;;12.74;82.53
5455;BME280;2750;49.050;9.250;2023-05-01T00:54:54;98706.28;;;12.73;82.11
5455;BME280;2750;49.050;9.250;2023-05-01T00:59:58;98706.78;;;12.80;81.72
5455;BME280;2750;49.050;9.250;2023-05-01T01:04:59;98700.72;;;12.34;83.46
5455;BME280;2750;49.050;9.250;2023-05-01T01:10:05;98694.56;;;12.35;83.50
5455;BME280;2750;49.050;9.250;2023-05-01T01:15:13;98687.94;;;12.45;83.19
5455;BME280;2750;49.050;9.250;2023-05-01T01:20:37;98679.94;;;12.64;83.16
5455;BME280;2750;49.050;9.250;2023-05-01T01:26:02;98676.91;;;12.71;82.76
5455;BME280;2750;49.050;9.250;2023-05-01T01:31:13;98677.63;;;12.73;82.45
5455;BME280;2750;49.050;9.250;2023-05-01T01:36:19;98681.22;;;12.86;82.22
5455;BME280;2750;49.050;9.250;2023-05-01T01:41:25;98679.81;;;12.65;84.05
5455;BME280;2750;49.050;9.250;2023-05-01T01:46:34;98669.84;;;12.58;84.64
5455;BME280;2750;49.050;9.250;2023-05-01T01:51:39;98674.28;;;12.71;83.78
5455;BME280;2750;49.050;9.250;2023-05-01T01:56:42;98667.53;;;12.53;84.37
5455;BME280;2750;49.050;9.250;2023-05-01T02:01:46;98671.91;;;12.21;85.31
5455;BME280;2750;49.050;9.250;2023-05-01T02:06:51;98665.19;;;11.86;86.66
5455;BME280;2750;49.050;9.250;2023-05-01T02:11:53;98660.00;;;12.02;86.36
5455;BME280;2750;49.050;9.250;2023-05-01T02:16:56;98656.06;;;11.94;86.51
5455;BME280;2750;49.050;9.250;2023-05-01T02:22:00;98657.16;;;12.22;85.93
5455;BME280;2750;49.050;9.250;2023-05-01T02:27:06;98657.81;;;12.10;85.34
5455;BME280;2750;49.050;9.250;2023-05-01T02:32:09;98655.63;;;12.18;85.99
5455;BME280;2750;49.050;9.250;2023-05-01T02:37:12;98650.69;;;12.29;85.20
5455;BME280;2750;49.050;9.250;2023-05-01T02:42:15;98644.22;;;12.20;84.68
5455;BME280;2750;49.050;9.250;2023-05-01T02:47:21;98645.56;;;12.12;85.54
5455;BME280;2750;49.050;9.250;2023-05-01T02:52:24;98634.06;;;12.00;85.87
5455;BME280;2750;49.050;9.250;2023-05-01T02:57:26;98633.97;;;11.86;87.04
5455;BME280;2750;49.050;9.250;2023-05-01T03:02:28;98631.69;;;12.27;85.72
5455;BME280;2750;49.050;9.250;2023-05-01T03:07:31;98622.81;;;12.15;85.42
5455;BME280;2750;49.050;9.250;2023-05-01T03:12:34;98631.56;;;12.14;86.59
5455;BME280;2750;49.050;9.250;2023-05-01T03:17:35;98627.88;;;12.03;87.72
5455;BME280;2750;49.050;9.250;2023-05-01T03:22:38;98621.88;;;12.32;87.33
5455;BME280;2750;49.050;9.250;2023-05-01T03:27:40;98611.28;;;12.35;86.77
5455;BME280;2750;49.050;9.250;2023-05-01T03:32:41;98619.47;;;12.59;85.54
5455;BME280;2750;49.050;9.250;2023-05-01T03:37:44;98617.03;;;12.85;84.69
5455;BME280;2750;49.050;9.250;2023-05-01T03:42:46;98608.13;;;12.89;84.47
5455;BME280;2750;49.050;9.250;2023-05-01T03:47:47;98604.47;;;12.78;84.92
5455;BME280;2750;49.050;9.250;2023-05-01T03:52:50;98593.81;;;12.97;84.22
5455;BME280;2750;49.050;9.250;2023-05-01T03:57:52;98592.25;;;12.94;83.96
5455;BME280;2750;49.050;9.250;2023-05-01T04:02:54;98589.25;;;13.00;83.57
5455;BME280;2750;49.050;9.250;2023-05-01T04:07:57;98592.28;;;12.64;84.52
5455;BME280;2750;49.050;9.250;2023-05-01T04:12:58;98589.97;;;12.88;84.47
5455;BME280;2750;49.050;9.250;2023-05-01T04:18:00;98587.16;;;13.07;83.79
5455;BME280;2750;49.050;9.250;2023-05-01T04:23:03;98595.28;;;12.86;84.69
5455;BME280;2750;49.050;9.250;2023-05-01T04:28:04;98597.44;;;12.94;84.01
5455;BME280;2750;49.050;9.250;2023-05-01T04:33:06;98593.59;;;13.15;83.90
5455;BME280;2750;49.050;9.250;2023-05-01T04:38:11;98595.97;;;13.04;84.22
5455;BME280;2750;49.050;9.250;2023-05-01T04:43:13;98595.31;;;13.01;84.33
5455;BME280;2750;49.050;9.250;2023-05-01T04:48:15;98591.28;;;13.11;84.72
5455;BME280;2750;49.050;9.250;2023-05-01T04:53:17;98591.28;;;13.11;84.99
5455;BME280;2750;49.050;9.250;2023-05-01T04:58:19;98601.13;;;12.46;87.34
5455;BME280;2750;49.050;9.250;2023-05-01T05:03:20;98601.41;;;12.85;87.04
5455;BME280;2750;49.050;9.250;2023-05-01T05:08:23;98597.63;;;12.91;86.16
5455;BME280;2750;49.050;9.250;2023-05-01T05:13:25;98595.72;;;13.51;85.00
5455;BME280;2750;49.050;9.250;2023-05-01T05:18:26;98589.56;;;13.66;83.30
5455;BME280;2750;49.050;9.250;2023-05-01T05:23:29;98599.50;;;13.88;82.81
5455;BME280;2750;49.050;9.250;2023-05-01T05:28:31;98591.16;;;14.10;82.40
5455;BME280;2750;49.050;9.250;2023-05-01T05:33:32;98590.59;;;14.58;81.32
5455;BME280;2750;49.050;9.250;2023-05-01T05:38:35;98589.59;;;14.73;80.03
5455;BME280;2750;49.050;9.250;2023-05-01T05:43:37;98578.75;;;14.92;80.46
5455;BME280;2750;49.050;9.250;2023-05-01T05:48:39;98583.94;;;14.67;80.78
5455;BME280;2750;49.050;9.250;2023-05-01T05:53:42;98576.88;;;15.07;80.46
5455;BME280;2750;49.050;9.250;2023-05-01T05:58:43;98582.09;;;15.32;79.24
5455;BME280;2750;49.050;9.250;2023-05-01T06:03:45;98588.25;;;15.69;77.90
5455;BME280;2750;49.050;9.250;2023-05-01T06:08:48;98588.38;;;15.55;77.29
5455;BME280;2750;49.050;9.250;2023-05-01T06:13:49;98594.94;;;14.84;80.58
5455;BME280;2750;49.050;9.250;2023-05-01T06:18:51;98593.94;;;14.60;81.53
5455;BME280;2750;49.050;9.250;2023-05-01T06:23:54;98590.81;;;14.55;81.84
5455;BME280;2750;49.050;9.250;2023-05-01T06:28:55;98588.41;;;14.52;82.43
5455;BME280;2750;49.050;9.250;2023-05-01T06:33:57;98595.63;;;14.61;81.66
5455;BME280;2750;49.050;9.250;2023-05-01T06:38:59;98592.88;;;14.90;80.36
5455;BME280;2750;49.050;9.250;2023-05-01T06:44:01;98589.00;;;15.20;79.33
5455;BME280;2750;49.050;9.250;2023-05-01T06:49:02;98588.94;;;15.84;77.58
5455;BME280;2750;49.050;9.250;2023-05-01T06:54:05;98598.31;;;15.99;76.99
5455;BME280;2750;49.050;9.250;2023-05-01T06:59:07;98595.34;;;16.40;76.83
5455;BME280;2750;49.050;9.250;2023-05-01T07:04:08;98604.47;;;16.34;78.32
5455;BME280;2750;49.050;9.250;2023-05-01T07:09:12;98599.25;;;17.04;75.57
5455;BME280;2750;49.050;9.250;2023-05-01T07:14:13;98619.81;;;17.43;74.32
5455;BME280;2750;49.050;9.250;2023-05-01T07:19:15;98605.72;;;18.11;70.89
5455;BME280;2750;49.050;9.250;2023-05-01T07:24:18;98605.69;;;18.86;67.76
5455;BME280;2750;49.050;9.250;2023-05-01T07:29:20;98597.34;;;19.73;65.24
5455;BME280;2750;49.050;9.250;2023-05-01T07:34:22;98603.69;;;20.11;64.27
5455;BME280;2750;49.050;9.250;2023-05-01T07:39:25;98599.78;;;19.95;63.96
5455;BME280;2750;49.050;9.250;2023-05-01T07:44:26;98586.97;;;20.60;61.06
5455;BME280;2750;49.050;9.250;2023-05-01T07:49:27;98587.13;;;19.80;62.71
5455;BME280;2750;49.050;9.250;2023-05-01T07:54:30;98589.63;;;19.81;60.25
5455;BME280;2750;49.050;9.250;2023-05-01T07:59:32;98586.56;;;19.25;60.98
5455;BME280;2750;49.050;9.250;2023-05-01T08:04:33;98586.03;;;19.01;61.22
5455;BME280;2750;49.050;9.250;2023-05-01T08:09:36;98584.22;;;19.43;59.88
5455;BME280;2750;49.050;9.250;2023-05-01T08:14:38;98581.34;;;19.55;60.49
5455;BME280;2750;49.050;9.250;2023-05-01T08:19:39;98584.66;;;19.88;60.11
5455;BME280;2750;49.050;9.250;2023-05-01T08:24:42;98578.84;;;19.33;59.58
5455;BME280;2750;49.050;9.250;2023-05-01T08:29:43;98576.00;;;19.16;60.60
5455;BME280;2750;49.050;9.250;2023-05-01T08:34:45;98565.94;;;19.00;60.62
5455;BME280;2750;49.050;9.250;2023-05-01T08:39:48;98575.38;;;19.33;60.55
5455;BME280;2750;49.050;9.250;2023-05-01T08:44:52;98572.38;;;19.68;59.77
5455;BME280;2750;49.050;9.250;2023-05-01T08:49:54;98568.69;;;19.89;59.13
5455;BME280;2750;49.050;9.250;2023-05-01T08:54:59;98576.44;;;20.31;59.39
5455;BME280;2750;49.050;9.250;2023-05-01T09:00:02;98577.66;;;20.27;58.59
5455;BME280;2750;49.050;9.250;2023-05-01T09:05:05;98575.47;;;20.41;58.27
5455;BME280;2750;49.050;9.250;2023-05-01T09:10:10;98573.59;;;21.09;57.09
5455;BME280;2750;49.050;9.250;2023-05-01T09:15:11;98579.19;;;20.87;57.27
5455;BME280;2750;49.050;9.250;2023-05-01T09:20:14;98578.00;;;21.28;56.96
5455;BME280;2750;49.050;9.250;2023-05-01T09:25:18;98578.19;;;21.17;57.36
5455;BME280;2750;49.050;9.250;2023-05-01T09:30:29;98574.69;;;22.00;56.01
5455;BME280;2750;49.050;9.250;2023-05-01T09:35:31;98579.13;;;23.05;54.73
5455;BME280;2750;49.050;9.250;2023-05-01T09:40:34;98573.69;;;23.32;54.07
5455;BME280;2750;49.050;9.250;2023-05-01T09:45:36;98570.03;;;23.08;54.89
5455;BME280;2750;49.050;9.250;2023-05-01T09:50:39;98567.88;;;23.55;53.78
5455;BME280;2750;49.050;9.250;2023-05-01T09:55:59;98570.34;;;23.48;53.64
5455;BME280;2750;49.050;9.250;2023-05-01T10:01:00;98558.25;;;22.76;55.79
5455;BME280;2750;49.050;9.250;2023-05-01T10:06:02;98564.59;;;21.02;57.75
5455;BME280;2750;49.050;9.250;2023-05-01T10:11:05;98572.25;;;22.69;56.45
5455;BME280;2750;49.050;9.250;2023-05-01T10:16:27;98565.00;;;21.81;57.22
5455;BME280;2750;49.050;9.250;2023-05-01T10:21:29;98570.19;;;22.45;56.16
5455;BME280;2750;49.050;9.250;2023-05-01T10:26:32;98565.72;;;22.81;55.41
5455;BME280;2750;49.050;9.250;2023-05-01T10:31:34;98565.66;;;24.26;52.99
5455;BME280;2750;49.050;9.250;2023-05-01T10:36:39;98570.34;;;23.90;53.34
5455;BME280;2750;49.050;9.250;2023-05-01T10:42:06;98570.41;;;24.06;53.50
5455;BME280;2750;49.050;9.250;2023-05-01T10:47:44;98574.47;;;23.25;55.10
5455;BME280;2750;49.050;9.250;2023-05-01T10:53:17;98560.59;;;22.44;55.83
5455;BME280;2750;49.050;9.250;2023-05-01T10:58:54;98556.53;;;22.93;55.17
5455;BME280;2750;49.050;9.250;2023-05-01T11:03:58;98555.75;;;22.75;55.68
5455;BME280;2750;49.050;9.250;2023-05-01T11:09:00;98556.28;;;22.61;56.57
5455;BME280;2750;49.050;9.250;2023-05-01T11:14:03;98556.94;;;21.92;57.34
5455;BME280;2750;49.050;9.250;2023-05-01T11:19:06;98555.13;;;22.10;57.88
5455;BME280;2750;49.050;9.250;2023-05-01T11:24:08;98545.06;;;20.76;58.08
5455;BME280;2750;49.050;9.250;2023-05-01T11:29:11;98542.53;;;21.40;58.64
5455;BME280;2750;49.050;9.250;2023-05-01T11:34:13;98538.97;;;22.13;56.91
5455;BME280;2750;49.050;9.250;2023-05-01T11:39:15;98525.00;;;21.76;57.88
5455;BME280;2750;49.050;9.250;2023-05-01T11:44:18;98522.41;;;21.93;57.04
5455;BME280;2750;49.050;9.250;2023-05-01T11:49:25;98525.06;;;22.47;55.63
5455;BME280;2750;49.050;9.250;2023-05-01T11:54:27;98537.22;;;21.77;56.69
5455;BME280;2750;49.050;9.250;2023-05-01T11:59:30;98530.50;;;21.92;57.55
5455;BME280;2750;49.050;9.250;2023-05-01T12:04:31;98521.94;;;21.71;56.93
5455;BME280;2750;49.050;9.250;2023-05-01T12:09:33;98522.16;;;22.58;55.64
5455;BME280;2750;49.050;9.250;2023-05-01T12:14:36;98521.50;;;23.25;54.12
5455;BME280;2750;49.050;9.250;2023-05-01T12:19:45;98524.97;;;23.25;54.89
5455;BME280;2750;49.050;9.250;2023-05-01T12:24:49;98515.91;;;23.70;54.69
5455;BME280;2750;49.050;9.250;2023-05-01T12:29:53;98522.22;;;22.66;55.55
5455;BME280;2750;49.050;9.250;2023-05-01T12:34:55;98518.13;;;22.46;55.59
5455;BME280;2750;49.050;9.250;2023-05-01T12:39:56;98517.28;;;22.10;56.63
5455;BME280;2750;49.050;9.250;2023-05-01T12:45:00;98520.59;;;21.39;56.64
5455;BME280;2750;49.050;9.250;2023-05-01T12:50:02;98521.16;;;19.81;59.83
5455;BME280;2750;49.050;9.250;2023-05-01T12:55:04;98518.78;;;21.67;56.80
5455;BME280;2750;49.050;9.250;2023-05-01T13:00:10;98514.50;;;20.83;59.52
5455;BME280;2750;49.050;9.250;2023-05-01T13:05:12;98509.72;;;21.15;58.68
5455;BME280;2750;49.050;9.250;2023-05-01T13:10:14;98505.78;;;22.01;57.40
5455;BME280;2750;49.050;9.250;2023-05-01T13:15:20;98504.81;;;22.37;55.95
5455;BME280;2750;49.050;9.250;2023-05-01T13:20:25;98504.50;;;22.40;56.12
5455;BME280;2750;49.050;9.250;2023-05-01T13:25:27;98500.91;;;22.67;55.57
5455;BME280;2750;49.050;9.250;2023-05-01T13:30:32;98511.00;;;23.07;54.60
5455;BME280;2750;49.050;9.250;2023-05-01T13:35:33;98499.25;;;22.84;55.48
5455;BME280;2750;49.050;9.250;2023-05-01T13:40:38;98496.56;;;22.76;55.53
5455;BME280;2750;49.050;9.250;2023-05-01T13:45:41;98485.31;;;22.38;56.04
5455;BME280;2750;49.050;9.250;2023-05-01T13:50:43;98486.34;;;21.75;57.39
5455;BME280;2750;49.050;9.250;2023-05-01T13:55:44;98492.25;;;20.95;58.70
5455;BME280;2750;49.050;9.250;2023-05-01T14:00:47;98507.97;;;21.61;56.77
5455;BME280;2750;49.050;9.250;2023-05-01T14:05:49;98493.78;;;23.11;54.83
5455;BME280;2750;49.050;9.250;2023-05-01T14:10:50;98493.91;;;22.76;55.03
5455;BME280;2750;49.050;9.250;2023-05-01T14:15:53;98495.47;;;22.86;53.63
5455;BME280;2750;49.050;9.250;2023-05-01T14:20:55;98482.72;;;21.76;55.39
5455;BME280;2750;49.050;9.250;2023-05-01T14:25:59;98489.84;;;21.93;55.89
5455;BME280;2750;49.050;9.250;2023-05-01T14:31:01;98485.19;;;22.05;56.48
5455;BME280;2750;49.050;9.250;2023-05-01T14:36:03;98488.88;;;23.58;53.80
5455;BME280;2750;49.050;9.250;2023-05-01T14:41:05;98485.50;;;23.98;52.50
5455;BME280;2750;49.050;9.250;2023-05-01T14:46:10;98485.47;;;21.29;55.89
5455;BME280;2750;49.050;9.250;2023-05-01T14:51:15;98495.25;;;20.15;56.65
5455;BME280;2750;49.050;9.250;2023-05-01T14:56:19;98486.75;;;19.83;56.89
5455;BME280;2750;49.050;9.250;2023-05-01T15:01:24;98488.72;;;20.48;56.86
5455;BME280;2750;49.050;9.250;2023-05-01T15:06:25;98508.91;;;20.95;54.99
5455;BME280;2750;49.050;9.250;2023-05-01T15:11:27;98520.91;;;20.80;56.20
5455;BME280;2750;49.050;9.250;2023-05-01T15:16:31;98510.66;;;20.58;57.82
5455;BME280;2750;49.050;9.250;2023-05-01T15:21:32;98517.59;;;20.40;58.96
5455;BME280;2750;49.050;9.250;2023-05-01T15:26:34;98508.41;;;20.73;57.62
5455;BME280;2750;49.050;9.250;2023-05-01T15:31:37;98502.94;;;22.12;55.34
5455;BME280;2750;49.050;9.250;2023-05-01T15:36:38;98497.00;;;23.57;53.25
5455;BME280;2750;49.050;9.250;2023-05-01T15:41:41;98495.03;;;22.73;53.93
5455;BME280;2750;49.050;9.250;2023-05-01T15:46:46;98499.84;;;21.44;55.19
5455;BME280;2750;49.050;9.250;2023-05-01T15:51:48;98504.81;;;21.20;55.69
5455;BME280;2750;49.050;9.250;2023-05-01T15:56:49;98502.09;;;21.67;56.17
5455;BME280;2750;49.050;9.250;2023-05-01T16:01:53;98506.41;;;21.40;55.50
5455;BME280;2750;49.050;9.250;2023-05-01T16:06:54;98508.28;;;22.20;54.29
5455;BME280;2750;49.050;9.250;2023-05-01T16:11:56;98496.97;;;22.46;53.69
5455;BME280;2750;49.050;9.250;2023-05-01T16:16:59;98505.13;;;21.99;54.15
5455;BME280;2750;49.050;9.250;2023-05-01T16:22:02;98517.50;;;21.71;53.93
5455;BME280;2750;49.050;9.250;2023-05-01T16:27:04;98515.81;;;22.86;52.89
5455;BME280;2750;49.050;9.250;2023-05-01T16:32:07;98534.13;;;22.79;53.73
5455;BME280;2750;49.050;9.250;2023-05-01T16:37:12;98527.53;;;23.09;52.59
5455;BME280;2750;49.050;9.250;2023-05-01T16:42:13;98523.91;;;23.10;52.91
5455;BME280;2750;49.050;9.250;2023-05-01T16:47:18;98525.84;;;23.60;51.62
5455;BME280;2750;49.050;9.250;2023-05-01T16:52:20;98521.56;;;24.65;50.55
5455;BME280;2750;49.050;9.250;2023-05-01T16:57:21;98522.56;;;25.68;48.92
5455;BME280;2750;49.050;9.250;2023-05-01T17:02:24;98521.13;;;25.80;49.21
5455;BME280;2750;49.050;9.250;2023-05-01T17:07:25;98522.13;;;25.40;49.18
5455;BME280;2750;49.050;9.250;2023-05-01T17:12:27;98521.91;;;24.70;49.85
5455;BME280;2750;49.050;9.250;2023-05-01T17:17:30;98533.00;;;24.17;50.32
5455;BME280;2750;49.050;9.250;2023-05-01T17:22:31;98536.91;;;24.05;50.43
5455;BME280;2750;49.050;9.250;2023-05-01T17:27:33;98542.84;;;23.23;51.42
5455;BME280;2750;49.050;9.250;2023-05-01T17:32:35;98552.75;;;22.34;52.88
5455;BME280;2750;49.050;9.250;2023-05-01T17:37:37;98555.00;;;22.65;53.22
5455;BME280;2750;49.050;9.250;2023-05-01T17:42:39;98560.13;;;22.84;54.35
5455;BME280;2750;49.050;9.250;2023-05-01T17:47:42;98559.41;;;23.93;53.35
5455;BME280;2750;49.050;9.250;2023-05-01T17:52:45;98552.69;;;23.39;53.96
5455;BME280;2750;49.050;9.250;2023-05-01T17:57:47;98557.97;;;23.39;54.76
5455;BME280;2750;49.050;9.250;2023-05-01T18:02:50;98556.91;;;22.98;54.01
5455;BME280;2750;49.050;9.250;2023-05-01T18:07:51;98558.06;;;22.42;54.64
5455;BME280;2750;49.050;9.250;2023-05-01T18:12:53;98559.84;;;21.62;59.48
5455;BME280;2750;49.050;9.250;2023-05-01T18:17:56;98572.59;;;21.29;61.46
5455;BME280;2750;49.050;9.250;2023-05-01T18:22:57;98577.28;;;20.70;62.28
5455;BME280;2750;49.050;9.250;2023-05-01T18:27:59;98599.88;;;20.34;62.30
5455;BME280;2750;49.050;9.250;2023-05-01T18:33:02;98605.78;;;20.07;62.54
5455;BME280;2750;49.050;9.250;2023-05-01T18:38:03;98605.81;;;19.77;63.64
5455;BME280;2750;49.050;9.250;2023-05-01T18:43:05;98618.72;;;19.29;65.87
5455;BME280;2750;49.050;9.250;2023-05-01T18:48:08;98623.50;;;18.61;68.40
5455;BME280;2750;49.050;9.250;2023-05-01T18:53:09;98629.97;;;17.92;70.62
5455;BME280;2750;49.050;9.250;2023-05-01T18:58:11;98634.03;;;18.07;72.47
5455;BME280;2750;49.050;9.250;2023-05-01T19:03:14;98650.28;;;17.68;74.84
5455;BME280;2750;49.050;9.250;2023-05-01T19:08:15;98655.53;;;17.22;76.35
5455;BME280;2750;49.050;9.250;2023-05-01T19:13:16;98654.25;;;17.28;76.80
5455;BME280;2750;49.050;9.250;2023-05-01T19:18:19;98663.91;;;17.27;76.81
5455;BME280;2750;49.050;9.250;2023-05-01T19:23:21;98679.13;;;17.11;77.15
5455;BME280;2750;49.050;9.250;2023-05-01T19:28:22;98678.06;;;16.79;77.35
5455;BME280;2750;49.050;9.250;2023-05-01T19:33:25;98683.63;;;16.38;78.42
5455;BME280;2750;49.050;9.250;2023-05-01T19:38:27;98683.53;;;16.39;78.68
5455;BME280;2750;49.050;9.250;2023-05-01T19:43:30;98696.34;;;16.31;79.48
5455;BME280;2750;49.050;9.250;2023-05-01T19:48:33;98711.38;;;15.91;80.73
5455;BME280;2750;49.050;9.250;2023-05-01T19:53:34;98721.88;;;15.53;82.42
5455;BME280;2750;49.050;9.250;2023-05-01T19:58:35;98720.00;;;15.81;81.55
5455;BME280;2750;49.050;9.250;2023-05-01T20:03:39;98728.69;;;15.81;81.86
5455;BME280;2750;49.050;9.250;2023-05-01T20:08:40;98740.50;;;15.61;82.17
5455;BME280;2750;49.050;9.250;2023-05-01T20:13:42;98742.38;;;15.72;81.79
5455;BME280;2750;49.050;9.250;2023-05-01T20:18:46;98742.59;;;15.69;83.13
5455;BME280;2750;49.050;9.250;2023-05-01T20:23:47;98752.84;;;15.85;82.31
5455;BME280;2750;49.050;9.250;2023-05-01T20:28:49;98756.94;;;15.24;83.90
5455;BME280;2750;49.050;9.250;2023-05-01T20:33:53;98764.38;;;15.30;84.18
5455;BME280;2750;49.050;9.250;2023-05-01T20:38:54;98768.25;;;15.37;83.79
5455;BME280;2750;49.050;9.250;2023-05-01T20:43:57;98768.94;;;15.53;83.62
5455;BME280;2750;49.050;9.250;2023-05-01T20:49:00;98775.41;;;15.48;83.53
5455;BME280;2750;49.050;9.250;2023-05-01T20:54:01;98770.47;;;15.43;84.01
5455;BME280;2750;49.050;9.250;2023-05-01T20:59:03;98778.28;;;15.30;84.98
5455;BME280;2750;49.050;9.250;2023-05-01T21:04:06;98782.66;;;15.17;85.70
5455;BME280;2750;49.050;9.250;2023-05-01T21:09:07;98787.13;;;14.89;86.55
5455;BME280;2750;49.050;9.250;2023-05-01T21:14:11;98780.19;;;15.28;84.88
5455;BME280;2750;49.050;9.250;2023-05-01T21:19:14;98792.56;;;14.86;85.83
5455;BME280;2750;49.050;9.250;2023-05-01T21:24:21;98791.25;;;14.38;87.19
5455;BME280;2750;49.050;9.250;2023-05-01T21:29:23;98801.75;;;14.08;89.68
5455;BME280;2750;49.050;9.250;2023-05-01T21:34:25;98795.03;;;14.04;89.88
5455;BME280;2750;49.050;9.250;2023-05-01T21:39:29;98793.00;;;13.95;89.18
5455;BME280;2750;49.050;9.250;2023-05-01T21:44:31;98791.69;;;14.02;88.88
5455;BME280;2750;49.050;9.250;2023-05-01T21:49:33;98786.09;;;13.79;89.61
5455;BME280;2750;49.050;9.250;2023-05-01T21:54:37;98797.78;;;13.72;91.19
5455;BME280;2750;49.050;9.250;2023-05-01T21:59:38;98798.31;;;13.93;90.75
5455;BME280;2750;49.050;9.250;2023-05-01T22:04:41;98808.22;;;13.72;89.96
5455;BME280;2750;49.050;9.250;2023-05-01T22:09:43;98803.78;;;13.74;88.97
5455;BME280;2750;49.050;9.250;2023-05-01T22:14:45;98813.84;;;13.36;90.95
5455;BME280;2750;49.050;9.250;2023-05-01T22:19:48;98811.84;;;13.56;91.17
5455;BME280;2750;49.050;9.250;2023-05-01T22:24:50;98812.59;;;13.28;90.51
5455;BME280;2750;49.050;9.250;2023-05-01T22:29:51;98816.28;;;13.24;90.54
5455;BME280;2750;49.050;9.250;2023-05-01T22:34:54;98832.09;;;13.21;90.13
5455;BME280;2750;49.050;9.250;2023-05-01T22:39:55;98833.88;;;13.20;90.85
5455;BME280;2750;49.050;9.250;2023-05-01T22:44:57;98847.47;;;13.41;90.16
5455;BME280;2750;49.050;9.250;2023-05-01T22:50:00;98841.94;;;13.46;89.91
5455;BME280;2750;49.050;9.250;2023-05-01T22:55:01;98846.69;;;13.39;89.92
5455;BME280;2750;49.050;9.250;2023-05-01T23:00:04;98850.41;;;13.35;90.07
5455;BME280;2750;49.050;9.250;2023-05-01T23:05:08;98852.59;;;13.27;89.97
5455;BME280;2750;49.050;9.250;2023-05-01T23:10:11;98857.03;;;13.40;89.97
5455;BME280;2750;49.050;9.250;2023-05-01T23:15:12;98857.81;;;13.27;90.48
5455;BME280;2750;49.050;9.250;2023-05-01T23:20:20;98866.81;;;13.21;91.08
5455;BME280;2750;49.050;9.250;2023-05-01T23:25:23;98866.03;;;13.35;90.03
5455;BME280;2750;49.050;9.250;2023-05-01T23:30:25;98862.88;;;13.30;89.42
5455;BME280;2750;49.050;9.250;2023-05-01T23:35:28;98872.16;;;13.34;88.64
5455;BME280;2750;49.050;9.250;2023-05-01T23:40:30;98861.84;;;13.32;89.19
5455;BME280;2750;49.050;9.250;2023-05-01T23:45:31;98860.81;;;13.35;89.15
5455;BME280;2750;49.050;9.250;2023-05-01T23:50:35;98863.63;;;13.16;89.32
5455;BME280;2750;49.050;9.250;2023-05-01T23:55:36;98862.50;;;12.73;90.84
